Portada
METAR-TAF:

METAR-TAF

Aeroports :

Juliaca, Perú

latitud: 15-29S, longitud: 070-09W, altitud: 3826 m

Observació

L'informe es va fer fa 7 hores i 0 minuts, a les 01:00 UTC
Vent 6 kt del Sud
Temperatura 11°C
Humitat 58%
Pressió 1034 hPa
Visibilitat 10 km o més
Núvols disperses a una alçada de 1000 ft
Cel ennuvolat a una alçada de 8000 ft

METAR: SPJL 150100Z 18006KT 9999 SCT010 BKN080 11/03 Q1034 RMK PP000

Hora: 03:00 (08:00 UTC)

Pronòstic

L'informe es va fer fa 9 hores i 0 minuts, a les 23:00 UTC
Pronòstic vàlid del 15 a les 00 UTC al 15 a les 24 UTC
Vent 7 kt del Sud/Sud-Est
Visibilitat 10 km o més
Núvols disperses a una alçada de 1200 ft
Cel ennuvolat a una alçada de 8000 ft
Temporalment
l' 15 a les 00 UTC al 15 a les 02 UTC
Cel ennuvolat a una alçada de 1200 ft

TAF: SPJL 142300Z 1500/1524 15007KT 9999 SCT012 BKN080 TX18/1518Z TN05/1510Z TEMPO 1500/1502 BKN012

Observacions i pronòstics meteorològics de més de 4000 aeroports (METAR i TAF).

Les estacions disponibles són els punts grocs i vermells al mapa.

Posi el ratolí al punt desitjat per veure el nom de l'estació.

Feu clic per veure les observacions i els pronòstics meteorològics.

Per canviar el mapa: feu clic els botons verds amb una creu de color negre per apropar; al botó verd amb un guió per allunyar la imatge; o en les fletxes verdes per a mapes adjacents.


METAR-TAF: